Time;durP1;ratioP1;P1;durP2;ratioP2;P2;SDS_P1;SDS_P2;PMS_P1;PMS_P2;Temp;Humidity;BMP_temperature;BMP_pressure;BME280_temperature;BME280_humidity;BME280_pressure;Samples;Min_cycle;Max_cycle;Signal;HPM_P1;HPM_P2
2022/06/22 00:01:36;;;;;;;0.50;0.47;;;;;;;22.38;100.00;94947.41;5133225;28;20777;-63
2022/06/22 00:04:06;;;;;;;0.50;0.40;;;;;;;22.27;100.00;94953.69;5132823;28;20915;-62
2022/06/22 00:06:39;;;;;;;0.83;0.73;;;;;;;22.17;100.00;94932.63;5133473;28;20430;-62
2022/06/22 00:09:18;;;;;;;2.03;0.67;;;;;;;21.97;100.00;94912.91;5132736;28;20426;-63
2022/06/22 00:11:48;;;;;;;0.70;0.60;;;;;;;22.16;100.00;94944.56;5133091;28;20442;-62
2022/06/22 00:14:18;;;;;;;0.80;0.57;;;;;;;22.19;100.00;94941.94;5133050;28;20513;-62
2022/06/22 00:16:51;;;;;;;0.63;0.60;;;;;;;22.27;100.00;94940.97;5132717;28;20473;-62
2022/06/22 00:19:27;;;;;;;0.40;0.30;;;;;;;22.12;100.00;94930.97;5132532;27;20478;-62
2022/06/22 00:21:55;;;;;;;0.50;0.37;;;;;;;22.26;100.00;94935.94;5133832;27;20453;-62
2022/06/22 00:24:39;;;;;;;2.40;0.60;;;;;;;22.10;100.00;94914.34;5137031;27;20423;-62
2022/06/22 00:27:32;;;;;;;0.93;0.93;;;;;;;22.03;100.00;94930.41;5136662;27;20521;-62
2022/06/22 00:30:28;;;;;;;1.77;0.60;;;;;;;21.99;100.00;94922.22;5132862;27;20465;-62
2022/06/22 00:33:14;;;;;;;0.80;0.80;;;;;;;21.43;100.00;94816.44;5136635;27;20458;-62
2022/06/22 00:35:50;;;;;;;0.80;0.57;;;;;;;21.28;100.00;94801.06;5136464;27;20477;-62
2022/06/22 00:38:21;;;;;;;0.93;0.50;;;;;;;22.03;100.00;94904.19;5136358;27;20520;-62
2022/06/22 00:40:54;;;;;;;0.50;0.43;;;;;;;21.39;100.00;94801.31;5136135;27;20860;-62
2022/06/22 00:43:29;;;;;;;0.93;0.90;;;;;;;21.84;100.00;94881.72;5137173;27;20454;-62
2022/06/22 00:46:00;;;;;;;2.80;0.50;;;;;;;21.98;100.00;94898.28;5136345;27;20910;-62
2022/06/22 00:48:33;;;;;;;0.80;0.70;;;;;;;21.93;100.00;94903.94;5136547;27;20426;-62
2022/06/22 00:51:06;;;;;;;0.50;0.30;;;;;;;22.01;100.00;94917.25;5136245;27;20965;-62
2022/06/22 00:53:39;;;;;;;0.60;0.60;;;;;;;20.97;100.00;94848.75;5136536;27;20930;-62
2022/06/22 00:56:19;;;;;;;0.40;0.30;;;;;;;21.28;100.00;94881.13;5136456;27;20426;-62
2022/06/22 00:59:01;;;;;;;1.60;1.50;;;;;;;21.46;100.00;94887.75;5136082;27;20557;-62
2022/06/22 01:01:38;;;;;;;0.40;0.40;;;;;;;21.70;100.00;94930.75;5135976;27;20422;-62
2022/06/22 01:04:13;;;;;;;0.60;0.30;;;;;;;21.76;100.00;94934.72;5136329;27;20481;-62
2022/06/22 01:06:47;;;;;;;0.97;0.47;;;;;;;21.40;100.00;94865.66;5135743;27;20437;-62
2022/06/22 01:09:27;;;;;;;0.40;0.30;;;;;;;21.22;100.00;94880.63;5136228;27;20465;-62
2022/06/22 01:12:19;;;;;;;0.60;0.50;;;;;;;21.53;100.00;94941.84;5135639;27;20442;-62
2022/06/22 01:15:00;;;;;;;0.50;0.47;;;;;;;20.96;100.00;94909.13;5135782;27;20438;-62
2022/06/22 01:17:34;;;;;;;0.80;0.70;;;;;;;21.20;100.00;94939.47;5135871;27;20458;-62
2022/06/22 01:20:10;;;;;;;0.50;0.40;;;;;;;21.36;100.00;94951.06;5135761;27;20511;-62
2022/06/22 01:22:51;;;;;;;0.50;0.40;;;;;;;20.27;100.00;94800.72;5134679;27;20456;-62
2022/06/22 01:25:41;;;;;;;0.50;0.40;;;;;;;21.35;100.00;94951.44;5135891;27;20787;-62
2022/06/22 01:28:13;;;;;;;0.57;0.57;;;;;;;21.35;100.00;94948.72;5135572;27;21009;-62
2022/06/22 01:30:43;;;;;;;0.57;0.53;;;;;;;21.22;100.00;94931.06;5134612;27;20470;-61
2022/06/22 01:33:19;;;;;;;0.50;0.50;;;;;;;21.38;100.00;94931.84;5133718;27;20541;-62
2022/06/22 01:35:53;;;;;;;1.10;1.07;;;;;;;21.39;100.00;94936.09;5133190;27;20517;-62
2022/06/22 01:38:24;;;;;;;0.90;0.60;;;;;;;21.31;100.00;94929.75;5134493;27;20431;-61
2022/06/22 01:41:02;;;;;;;2.60;0.80;;;;;;;21.16;100.00;94910.84;5135333;27;20470;-61
2022/06/22 01:43:37;;;;;;;0.90;0.60;;;;;;;20.38;100.00;94870.22;5135066;27;20421;-62
2022/06/22 01:46:15;;;;;;;2.60;0.57;;;;;;;20.87;100.00;94931.63;5135183;27;20471;-61
2022/06/22 01:48:51;;;;;;;0.90;0.50;;;;;;;21.07;100.00;94932.59;5135561;27;20430;-61
2022/06/22 01:51:25;;;;;;;0.60;0.40;;;;;;;20.35;100.00;94941.66;5135578;27;20854;-61
2022/06/22 01:53:59;;;;;;;0.60;0.40;;;;;;;20.19;100.00;94944.22;5135008;27;20460;-62
2022/06/22 01:56:34;;;;;;;0.87;0.87;;;;;;;20.22;100.00;94873.59;5134934;27;20981;-62
2022/06/22 01:59:17;;;;;;;0.73;0.70;;;;;;;20.53;100.00;94886.44;5135086;27;20872;-62
2022/06/22 02:01:52;;;;;;;0.50;0.30;;;;;;;20.92;100.00;94944.84;5135160;27;20506;-62
2022/06/22 02:04:31;;;;;;;0.50;0.40;;;;;;;20.98;100.00;94947.28;5134879;27;20513;-62
2022/06/22 02:10:12;;;;;;;0.50;0.30;;;;;;;21.06;100.00;94955.25;5135185;27;20438;-62
2022/06/22 02:12:46;;;;;;;0.50;0.40;;;;;;;21.10;100.00;94958.06;5134705;27;20427;-62
2022/06/22 02:15:28;;;;;;;0.90;0.70;;;;;;;20.50;100.00;94878.22;5134077;27;20869;-62
2022/06/22 02:17:58;;;;;;;2.77;0.50;;;;;;;21.09;100.00;94959.97;5134877;27;20526;-62
2022/06/22 02:20:35;;;;;;;0.80;0.80;;;;;;;21.07;100.00;94939.88;5134562;27;20494;-62
2022/06/22 02:23:10;;;;;;;0.50;0.40;;;;;;;21.01;100.00;94927.75;5134325;27;20454;-61
2022/06/22 02:25:45;;;;;;;0.87;0.47;;;;;;;21.11;100.00;94952.31;5134416;27;20906;-62
2022/06/22 02:28:14;;;;;;;0.70;0.70;;;;;;;21.04;100.00;94946.72;5134581;27;20790;-62
2022/06/22 02:30:45;;;;;;;0.87;0.70;;;;;;;21.01;100.00;94943.91;5134344;27;20458;-62
2022/06/22 02:33:15;;;;;;;0.60;0.50;;;;;;;20.87;100.00;94937.00;5134440;27;20430;-62
2022/06/22 02:38:30;;;;;;;0.70;0.40;;;;;;;20.90;100.00;94920.16;5134218;27;20434;-62
2022/06/22 02:46:39;;;;;;;0.80;0.80;;;;;;;20.35;100.00;94895.91;5133000;27;20473;-62
2022/06/22 02:49:13;;;;;;;0.40;0.30;;;;;;;20.31;100.00;94886.16;5133886;27;20478;-62
2022/06/22 02:51:45;;;;;;;3.57;0.83;;;;;;;20.16;100.00;94861.47;5133467;27;20495;-62
2022/06/22 02:54:23;;;;;;;0.50;0.43;;;;;;;20.58;100.00;94939.25;5134229;27;20454;-61
2022/06/22 02:57:01;;;;;;;3.23;0.60;;;;;;;20.15;100.00;94951.41;5134000;27;20462;-61
2022/06/22 02:59:31;;;;;;;10.43;1.30;;;;;;;20.42;100.00;94949.94;5133703;27;20485;-61
2022/06/22 03:02:02;;;;;;;0.67;0.50;;;;;;;20.62;100.00;94937.44;5133462;27;20481;-62
2022/06/22 03:04:30;;;;;;;0.90;0.60;;;;;;;20.34;100.00;94942.75;5133792;27;20419;-62
2022/06/22 03:07:00;;;;;;;0.70;0.60;;;;;;;19.97;100.00;94887.41;5133518;27;20463;-62
2022/06/22 03:09:30;;;;;;;0.83;0.60;;;;;;;20.53;100.00;94952.94;5132901;27;20514;-62
2022/06/22 03:12:01;;;;;;;2.90;0.60;;;;;;;20.50;100.00;94950.94;5133557;27;20470;-61
2022/06/22 03:14:33;;;;;;;0.40;0.30;;;;;;;20.30;100.00;94944.56;5133735;27;20418;-61
2022/06/22 03:17:06;;;;;;;0.90;0.90;;;;;;;19.99;100.00;94929.00;5133627;27;20837;-61
2022/06/22 03:19:42;;;;;;;1.13;1.13;;;;;;;19.57;100.00;94895.41;5133304;27;20505;-61
2022/06/22 03:22:17;;;;;;;2.10;0.40;;;;;;;20.24;100.00;94948.63;5133643;27;20446;-62
2022/06/22 03:24:52;;;;;;;0.73;0.73;;;;;;;20.50;100.00;94949.03;5133578;27;20430;-61
2022/06/22 03:27:30;;;;;;;0.50;0.40;;;;;;;20.62;100.00;94957.06;5133630;27;20457;-61
2022/06/22 03:30:01;;;;;;;5.13;1.23;;;;;;;20.61;100.00;94960.09;5133074;27;20950;-61
2022/06/22 03:32:35;;;;;;;1.33;1.00;;;;;;;20.30;100.00;94898.03;5133114;27;20467;-62
2022/06/22 03:35:09;;;;;;;0.83;0.80;;;;;;;20.74;100.00;94961.66;5133032;27;20498;-62
2022/06/22 03:37:41;;;;;;;1.10;0.67;;;;;;;20.51;100.00;94950.59;5132497;27;20458;-62
2022/06/22 03:40:14;;;;;;;0.90;0.90;;;;;;;20.24;100.00;94959.38;5132708;27;21089;-63
2022/06/22 03:42:46;;;;;;;0.90;0.90;;;;;;;20.00;100.00;94951.31;5132962;27;20427;-62
2022/06/22 03:45:20;;;;;;;0.67;0.67;;;;;;;19.42;100.00;94952.50;5132060;27;20561;-62
2022/06/22 03:47:58;;;;;;;0.87;0.87;;;;;;;19.80;100.00;94952.22;5132687;27;20438;-62
2022/06/22 03:50:34;;;;;;;0.70;0.70;;;;;;;20.03;100.00;94956.81;5133004;27;20466;-62
2022/06/22 03:53:09;;;;;;;0.63;0.50;;;;;;;20.00;100.00;94898.28;5133159;28;20425;-62
2022/06/22 03:55:41;;;;;;;0.80;0.60;;;;;;;20.36;100.00;94956.69;5132799;28;20778;-62
2022/06/22 03:58:11;;;;;;;1.57;0.90;;;;;;;19.83;100.00;94887.00;5131616;27;20994;-62
2022/06/22 04:00:42;;;;;;;0.83;0.83;;;;;;;20.25;100.00;94952.88;5132762;28;20560;-63
2022/06/22 04:03:14;;;;;;;0.60;0.37;;;;;;;20.51;100.00;94955.19;5133429;28;20430;-63
2022/06/22 04:05:45;;;;;;;0.40;0.30;;;;;;;20.59;100.00;94957.75;5132713;28;20423;-65
2022/06/22 04:08:20;;;;;;;0.87;0.87;;;;;;;20.63;100.00;94964.03;5132942;28;20506;-64
2022/06/22 04:10:53;;;;;;;0.60;0.60;;;;;;;20.84;100.00;94953.09;5132477;27;20465;-64
2022/06/22 04:13:26;;;;;;;0.80;0.80;;;;;;;20.98;100.00;94953.47;5132724;28;20418;-64
2022/06/22 04:16:00;;;;;;;0.70;0.60;;;;;;;21.21;100.00;94969.91;5132996;28;20458;-64
2022/06/22 04:18:34;;;;;;;1.00;0.50;;;;;;;20.92;100.00;94899.03;5133002;28;20479;-63
2022/06/22 04:21:06;;;;;;;0.60;0.60;;;;;;;21.38;100.00;94964.97;5132619;27;20546;-64
2022/06/22 04:23:39;;;;;;;0.50;0.43;;;;;;;21.11;100.00;94973.88;5132364;28;20426;-63
2022/06/22 04:26:13;;;;;;;0.63;0.60;;;;;;;21.35;100.00;94965.66;5132563;28;20480;-62
2022/06/22 04:28:46;;;;;;;0.60;0.60;;;;;;;21.57;100.00;94968.91;5132401;28;20460;-64
2022/06/22 04:31:20;;;;;;;0.70;0.70;;;;;;;20.99;100.00;94879.59;5132038;28;20946;-60
2022/06/22 04:33:58;;;;;;;0.70;0.70;;;;;;;21.63;100.00;94951.38;5132572;28;20426;-61
2022/06/22 04:36:32;;;;;;;2.00;0.50;;;;;;;21.73;100.00;94961.63;5132489;28;20418;-61
2022/06/22 04:39:07;;;;;;;0.70;0.67;;;;;;;21.69;100.00;94964.22;5132346;27;20439;-61
2022/06/22 04:41:38;;;;;;;0.70;0.57;;;;;;;21.67;100.00;94966.50;5132192;28;20548;-61
2022/06/22 04:44:11;;;;;;;0.70;0.40;;;;;;;21.96;100.00;94973.41;5131831;28;20885;-60
2022/06/22 04:46:44;;;;;;;1.83;0.63;;;;;;;22.07;100.00;94967.13;5132144;27;20462;-60
2022/06/22 04:49:20;;;;;;;0.60;0.57;;;;;;;22.12;100.00;94969.56;5132184;28;20481;-60
2022/06/22 04:51:53;;;;;;;0.87;0.87;;;;;;;22.29;100.00;94973.78;5132382;28;20465;-59
2022/06/22 04:54:26;;;;;;;0.50;0.50;;;;;;;22.21;100.00;94977.47;5132158;28;20881;-60
2022/06/22 04:56:56;;;;;;;1.10;0.70;;;;;;;22.23;100.00;94971.72;5132542;28;20501;-60
2022/06/22 04:59:26;;;;;;;1.10;1.00;;;;;;;22.34;100.00;94975.47;5132291;28;20445;-60
2022/06/22 05:01:57;;;;;;;0.43;0.30;;;;;;;22.50;100.00;94985.09;5132035;28;20462;-60
2022/06/22 05:04:32;;;;;;;0.50;0.50;;;;;;;22.60;100.00;94979.13;5132229;28;20491;-60
2022/06/22 05:07:07;;;;;;;0.50;0.40;;;;;;;22.77;100.00;94979.91;5133035;28;20514;-59
2022/06/22 05:09:44;;;;;;;0.93;0.87;;;;;;;22.74;100.00;94989.50;5135242;27;20423;-59
2022/06/22 05:12:14;;;;;;;0.77;0.60;;;;;;;21.82;100.00;94808.44;5136285;27;20497;-59
2022/06/22 05:14:46;;;;;;;1.03;1.03;;;;;;;23.15;100.00;94983.38;5135829;27;20422;-59
2022/06/22 05:17:20;;;;;;;0.50;0.40;;;;;;;23.01;100.00;94939.06;5134874;27;20498;-59
2022/06/22 05:19:55;;;;;;;0.90;0.40;;;;;;;23.23;100.00;94963.47;5135975;27;20504;-58
2022/06/22 05:22:24;;;;;;;1.30;1.00;;;;;;;23.14;100.00;94984.53;5135875;27;20489;-59
2022/06/22 05:24:57;;;;;;;0.93;0.83;;;;;;;23.24;100.00;94980.47;5135690;27;20423;-58
2022/06/22 05:27:30;;;;;;;0.83;0.60;;;;;;;23.44;100.00;94983.97;5135841;27;20506;-57
2022/06/22 05:30:02;;;;;;;0.87;0.87;;;;;;;23.16;100.00;94930.09;5135810;27;20457;-57
2022/06/22 05:32:34;;;;;;;0.97;0.93;;;;;;;23.66;100.00;94975.88;5135272;27;20430;-57
2022/06/22 05:35:09;;;;;;;0.77;0.70;;;;;;;23.24;100.00;94934.50;5135093;27;20500;-58
2022/06/22 05:37:44;;;;;;;1.27;1.27;;;;;;;22.97;100.00;94981.47;5135533;27;20459;-58
2022/06/22 05:40:15;;;;;;;0.93;0.90;;;;;;;23.72;100.00;94973.66;5135353;27;20463;-57
2022/06/22 05:42:43;;;;;;;1.80;1.10;;;;;;;24.04;100.00;94980.38;5135160;27;20465;-57
2022/06/22 05:45:16;;;;;;;0.57;0.40;;;;;;;24.19;100.00;94984.09;5135196;27;20541;-57
2022/06/22 05:47:46;;;;;;;1.53;1.43;;;;;;;23.38;100.00;94986.94;5135561;27;20422;-57
2022/06/22 05:50:27;;;;;;;0.97;0.87;;;;;;;23.82;100.00;94946.78;5135351;27;20454;-58
2022/06/22 05:53:00;;;;;;;3.57;0.87;;;;;;;23.67;100.00;94990.97;5135186;27;20954;-57
2022/06/22 05:55:37;;;;;;;0.80;0.80;;;;;;;23.78;100.00;94989.22;5135023;27;20953;-57
2022/06/22 05:58:11;;;;;;;1.33;1.00;;;;;;;23.70;100.00;94989.47;5134970;27;20445;-57
2022/06/22 06:00:44;;;;;;;5.33;0.77;;;;;;;23.75;100.00;95000.00;5134622;27;20441;-57
2022/06/22 06:03:26;;;;;;;1.63;1.57;;;;;;;24.06;100.00;94990.84;5135026;27;20510;-57
2022/06/22 06:06:01;;;;;;;0.70;0.70;;;;;;;24.70;100.00;94989.91;5134999;27;20434;-58
2022/06/22 06:08:38;;;;;;;1.13;1.10;;;;;;;24.77;100.00;94990.78;5134790;27;20501;-57
2022/06/22 06:11:10;;;;;;;1.00;0.70;;;;;;;24.28;100.00;94984.66;5134295;27;20513;-57
2022/06/22 06:13:40;;;;;;;4.20;1.43;;;;;;;24.76;100.00;94989.22;5134528;27;20498;-57
2022/06/22 06:16:16;;;;;;;0.80;0.77;;;;;;;24.63;100.00;94991.38;5134249;27;20509;-57
2022/06/22 06:18:46;;;;;;;0.73;0.73;;;;;;;24.56;100.00;94996.69;5134342;27;20414;-57
2022/06/22 06:21:19;;;;;;;0.60;0.60;;;;;;;25.11;100.00;94995.13;5134362;27;20513;-57
2022/06/22 06:23:53;;;;;;;0.97;0.97;;;;;;;24.67;100.00;94939.91;5134349;27;20422;-56
2022/06/22 06:29:24;;;;;;;0.60;0.60;;;;;;;25.90;96.75;94981.28;5134171;27;20518;-56
2022/06/22 06:32:03;;;;;;;0.60;0.60;;;;;;;26.20;93.23;94949.34;5133191;27;20469;-56
2022/06/22 06:34:36;;;;;;;0.70;0.60;;;;;;;26.96;86.98;94979.34;5133644;27;20506;-56
2022/06/22 06:37:12;;;;;;;0.57;0.57;;;;;;;27.50;84.68;94973.75;5133201;27;20462;-55
2022/06/22 06:39:46;;;;;;;2.07;1.97;;;;;;;27.30;83.28;94969.75;5133784;27;20465;-55
2022/06/22 06:42:26;;;;;;;0.50;0.50;;;;;;;27.89;78.53;94959.41;5133891;27;20500;-56
2022/06/22 06:44:54;;;;;;;0.50;0.40;;;;;;;27.77;77.95;94967.97;5132928;27;20543;-56
2022/06/22 06:47:28;;;;;;;1.10;1.00;;;;;;;27.30;87.58;94967.03;5133889;27;20454;-56
2022/06/22 06:50:03;;;;;;;1.37;0.70;;;;;;;27.59;85.77;94966.00;5133478;27;20455;-57
2022/06/22 06:52:42;;;;;;;1.17;0.83;;;;;;;27.60;84.22;94962.09;5133499;27;20821;-57
2022/06/22 06:55:24;;;;;;;0.73;0.73;;;;;;;28.10;82.37;94962.19;5133257;27;20422;-57
2022/06/22 06:58:01;;;;;;;0.73;0.70;;;;;;;28.18;76.45;94958.31;5133332;27;20807;-57
2022/06/22 07:00:31;;;;;;;1.13;1.13;;;;;;;27.93;73.81;94955.53;5133630;27;20455;-58
2022/06/22 07:03:01;;;;;;;1.40;1.03;;;;;;;28.48;75.05;94955.94;5133704;27;20462;-58
2022/06/22 07:05:32;;;;;;;1.23;0.80;;;;;;;28.77;73.71;94952.00;5133285;27;20919;-58
2022/06/22 07:08:10;;;;;;;1.57;1.10;;;;;;;28.40;75.30;94940.75;5133088;27;20466;-59
2022/06/22 07:11:01;;;;;;;0.90;0.90;;;;;;;28.71;79.87;94948.13;5134311;27;21129;-59
2022/06/22 07:13:36;;;;;;;0.73;0.60;;;;;;;29.08;74.57;94938.66;5133063;27;20989;-59
2022/06/22 07:16:14;;;;;;;1.47;1.37;;;;;;;28.97;72.88;94946.13;5133423;27;20852;-60
2022/06/22 07:18:49;;;;;;;1.07;1.07;;;;;;;29.14;77.93;94942.53;5133237;27;20434;-60
2022/06/22 07:21:21;;;;;;;1.63;0.70;;;;;;;29.69;67.76;94897.00;5133157;27;20430;-56
2022/06/22 07:23:53;;;;;;;0.60;0.60;;;;;;;30.34;62.76;94939.03;5132321;27;20501;-57
2022/06/22 07:26:31;;;;;;;1.20;1.20;;;;;;;30.05;65.43;94914.72;5133186;27;20526;-58
2022/06/22 07:29:06;;;;;;;0.87;0.87;;;;;;;30.28;63.91;94927.78;5133110;27;20521;-58
2022/06/22 07:31:40;;;;;;;0.80;0.80;;;;;;;30.75;60.82;94923.44;5132635;27;20434;-57
2022/06/22 07:34:16;;;;;;;1.43;1.33;;;;;;;30.75;60.63;94912.47;5133556;27;20574;-57
2022/06/22 07:36:48;;;;;;;0.83;0.83;;;;;;;31.20;58.48;94919.41;5133011;27;20451;-57
2022/06/22 07:39:26;;;;;;;1.90;0.40;;;;;;;30.80;57.99;94910.09;5132851;27;20466;-57
2022/06/22 07:41:54;;;;;;;1.17;1.10;;;;;;;31.19;59.30;94917.06;5132843;27;20521;-56
2022/06/22 07:44:26;;;;;;;0.80;0.80;;;;;;;31.10;58.36;94916.78;5132198;27;20513;-56
2022/06/22 07:47:00;;;;;;;1.53;1.43;;;;;;;30.79;57.54;94899.53;5132416;27;20470;-56
2022/06/22 07:49:33;;;;;;;0.67;0.67;;;;;;;31.38;60.92;94906.25;5131896;27;20434;-56
2022/06/22 07:52:06;;;;;;;0.70;0.70;;;;;;;31.30;57.62;94899.31;5132866;27;20471;-56
2022/06/22 07:54:44;;;;;;;0.70;0.70;;;;;;;31.19;61.09;94906.91;5132845;27;20458;-57
2022/06/22 07:57:22;;;;;;;0.97;0.97;;;;;;;30.64;60.67;94909.06;5132800;28;20552;-56
2022/06/22 07:59:54;;;;;;;0.50;0.50;;;;;;;31.46;59.83;94903.44;5133157;28;20838;-56
2022/06/22 08:02:26;;;;;;;1.10;1.10;;;;;;;32.37;57.22;94901.22;5132933;28;20509;-57
2022/06/22 08:05:02;;;;;;;1.03;1.00;;;;;;;31.84;56.30;94911.09;5133202;28;20426;-57
2022/06/22 08:07:45;;;;;;;0.60;0.47;;;;;;;32.73;51.77;94906.88;5132809;27;20438;-57
2022/06/22 08:10:19;;;;;;;0.53;0.53;;;;;;;32.59;52.54;94892.22;5133284;28;20458;-56
2022/06/22 08:12:56;;;;;;;0.60;0.47;;;;;;;32.64;51.86;94864.28;5132307;27;20494;-54
2022/06/22 08:15:25;;;;;;;0.93;0.83;;;;;;;33.00;49.76;94908.31;5132188;28;20454;-55
2022/06/22 08:17:56;;;;;;;0.90;0.53;;;;;;;32.35;49.95;94857.00;5132582;28;20563;-55
2022/06/22 08:20:28;;;;;;;0.50;0.40;;;;;;;33.14;51.09;94907.28;5132627;28;20509;-55
2022/06/22 08:22:59;;;;;;;0.50;0.50;;;;;;;32.40;49.63;94821.63;5132831;28;20545;-56
2022/06/22 08:25:50;;;;;;;0.50;0.50;;;;;;;34.13;47.94;94907.84;5132492;27;20435;-55
2022/06/22 08:28:23;;;;;;;0.60;0.50;;;;;;;33.86;49.99;94908.06;5132509;27;20427;-56
2022/06/22 08:30:54;;;;;;;1.47;0.70;;;;;;;33.79;48.95;94903.50;5132678;28;20847;-56
2022/06/22 08:33:28;;;;;;;0.57;0.57;;;;;;;33.94;46.89;94897.66;5132748;27;20866;-56
2022/06/22 08:36:01;;;;;;;0.70;0.70;;;;;;;33.93;46.20;94894.13;5132180;28;20960;-55
2022/06/22 08:38:37;;;;;;;0.60;0.50;;;;;;;33.97;47.98;94891.31;5132408;28;20958;-54
2022/06/22 08:41:16;;;;;;;1.00;1.00;;;;;;;34.53;47.28;94887.16;5132447;28;20455;-56
2022/06/22 08:43:51;;;;;;;1.17;1.07;;;;;;;34.88;43.12;94893.69;5132721;27;20575;-56
2022/06/22 08:46:55;;;;;;;0.57;0.50;;;;;;;34.50;45.42;94893.53;5136634;27;20529;-55
2022/06/22 08:49:54;;;;;;;1.03;1.03;;;;;;;34.14;44.34;94890.91;5136502;27;20452;-55
2022/06/22 08:52:46;;;;;;;0.60;0.60;;;;;;;35.44;41.59;94885.81;5119302;27;20983;-55
2022/06/22 08:55:49;;;;;;;0.40;0.30;;;;;;;35.82;35.82;94877.56;5136304;27;20441;-56
2022/06/22 08:58:37;;;;;;;0.40;0.30;;;;;;;36.01;35.15;94860.03;5135833;27;20866;-55
2022/06/22 09:01:16;;;;;;;1.47;0.93;;;;;;;35.98;35.74;94861.66;5135886;27;20428;-55
2022/06/22 09:04:24;;;;;;;0.80;0.80;;;;;;;35.88;36.62;94871.03;5135884;27;20979;-55
2022/06/22 09:07:38;;;;;;;0.87;0.70;;;;;;;36.22;36.33;94865.63;5135771;27;20431;-55
2022/06/22 09:10:41;;;;;;;6.67;0.67;;;;;;;36.15;34.56;94856.81;5052530;28;20874;-55
2022/06/22 09:13:42;;;;;;;0.60;0.50;;;;;;;36.54;32.99;94855.50;5131730;27;20239;-55
2022/06/22 09:16:28;;;;;;;1.13;1.13;;;;;;;35.38;32.71;94863.53;5135772;27;20281;-54
2022/06/22 09:19:14;;;;;;;0.60;0.40;;;;;;;35.96;33.24;94853.06;5134604;27;20442;-54
2022/06/22 09:21:59;;;;;;;1.50;1.00;;;;;;;36.77;32.49;94832.97;5136042;27;20227;-55
2022/06/22 09:24:40;;;;;;;0.50;0.50;;;;;;;36.98;31.36;94845.25;5135464;27;20301;-56
2022/06/22 09:27:17;;;;;;;1.10;1.10;;;;;;;36.24;34.44;94846.63;5135944;27;20233;-55
2022/06/22 09:30:05;;;;;;;0.70;0.70;;;;;;;35.53;33.30;94811.50;5136189;27;20613;-54
2022/06/22 09:33:00;;;;;;;0.50;0.50;;;;;;;35.40;33.21;94835.50;5135411;27;20206;-54
2022/06/22 09:35:56;;;;;;;1.90;1.40;;;;;;;35.38;31.98;94805.66;5135479;27;20196;-55
2022/06/22 09:38:39;;;;;;;1.17;0.73;;;;;;;36.02;31.45;94826.50;5121681;27;20281;-55
2022/06/22 09:41:21;;;;;;;1.47;1.07;;;;;;;35.72;30.23;94833.34;5135288;27;20219;-55
2022/06/22 09:44:26;;;;;;;0.80;0.80;;;;;;;36.11;31.34;94826.56;5134965;27;20294;-55
2022/06/22 09:47:23;;;;;;;1.37;1.37;;;;;;;36.30;32.21;94825.53;5135203;27;20219;-55
2022/06/22 09:50:36;;;;;;;0.60;0.50;;;;;;;36.70;30.87;94824.94;5134939;27;20224;-55
2022/06/22 09:53:26;;;;;;;0.97;0.77;;;;;;;36.86;28.98;94816.47;5135602;27;20191;-55
2022/06/22 09:56:22;;;;;;;0.93;0.77;;;;;;;36.90;28.94;94817.09;5134699;27;20188;-55
2022/06/22 09:59:32;;;;;;;0.50;0.50;;;;;;;36.59;29.87;94813.50;5134149;27;20631;-55
2022/06/22 10:02:31;;;;;;;1.40;1.30;;;;;;;37.02;29.38;94819.03;5135154;27;20522;-55
2022/06/22 10:05:49;;;;;;;0.95;0.85;;;;;;;37.51;30.46;94811.63;5118627;27;20224;-55
2022/06/22 10:08:43;;;;;;;1.60;0.65;;;;;;;37.04;28.76;94805.53;5135132;27;20181;-55
2022/06/22 10:11:36;;;;;;;0.50;0.50;;;;;;;36.79;29.46;94797.38;5132014;27;20648;-56
2022/06/22 10:14:42;;;;;;;0.60;0.60;;;;;;;36.05;30.82;94811.03;5134921;27;20609;-55
2022/06/22 10:17:51;;;;;;;0.90;0.90;;;;;;;36.26;29.96;94797.28;5134137;27;20200;-54
2022/06/22 10:20:46;;;;;;;0.90;0.87;;;;;;;36.53;30.03;94801.50;5134649;27;20188;-55
2022/06/22 10:23:32;;;;;;;0.83;0.70;;;;;;;35.59;30.01;94795.97;5134787;27;20246;-54
2022/06/22 10:26:18;;;;;;;0.50;0.40;;;;;;;36.16;30.93;94801.16;5134257;27;20240;-55
2022/06/22 10:29:12;;;;;;;6.80;0.70;;;;;;;36.72;29.68;94762.50;5133829;27;20275;-54
2022/06/22 10:31:55;;;;;;;0.70;0.67;;;;;;;37.06;30.43;94785.75;5134047;27;20694;-55
2022/06/22 10:34:40;;;;;;;0.50;0.40;;;;;;;36.26;29.97;94783.47;5134160;27;20671;-55
2022/06/22 10:37:29;;;;;;;0.57;0.43;;;;;;;35.44;32.14;94781.06;5134325;27;20263;-54
2022/06/22 10:46:01;;;;;;;0.60;0.60;;;;;;;34.84;35.19;94769.13;5133955;27;20431;-55
2022/06/22 10:49:12;;;;;;;0.60;0.60;;;;;;;35.73;33.37;94762.41;5134436;27;20198;-55
2022/06/22 10:52:07;;;;;;;1.90;0.60;;;;;;;35.25;36.04;94771.03;5133967;27;20523;-55
2022/06/22 10:55:01;;;;;;;0.50;0.50;;;;;;;35.09;35.39;94760.91;5133827;27;20909;-55
2022/06/22 10:58:00;;;;;;;0.70;0.70;;;;;;;35.33;37.27;94756.59;5133548;27;21013;-55
2022/06/22 11:00:43;;;;;;;0.50;0.43;;;;;;;35.94;32.97;94753.44;5133681;27;20500;-55
2022/06/22 11:04:05;;;;;;;0.77;0.77;;;;;;;34.95;35.74;94750.28;5134044;27;20439;-54
2022/06/22 11:07:03;;;;;;;1.17;1.17;;;;;;;34.21;38.09;94752.38;5069018;28;20495;-55
2022/06/22 11:09:48;;;;;;;4.10;0.50;;;;;;;34.03;36.80;94758.34;5132030;27;20526;-55
2022/06/22 11:12:44;;;;;;;0.40;0.40;;;;;;;33.82;36.89;94747.91;5133420;27;20473;-55
2022/06/22 11:15:44;;;;;;;0.83;0.83;;;;;;;34.08;37.60;94751.59;5130909;27;21120;-55
2022/06/22 11:18:43;;;;;;;28.73;1.10;;;;;;;35.07;36.08;94752.28;5133654;27;20461;-56
2022/06/22 11:21:29;;;;;;;0.70;0.50;;;;;;;35.08;37.34;94751.09;5132700;27;20470;-56
2022/06/22 11:24:42;;;;;;;0.67;0.67;;;;;;;34.76;36.94;94743.75;5133108;27;20494;-59
2022/06/22 11:33:34;;;;;;;1.23;1.23;;;;;;;33.17;40.67;94747.09;5132933;27;20528;-61
2022/06/22 11:36:13;;;;;;;1.33;1.20;;;;;;;32.74;41.57;94747.25;5113060;27;20442;-60
2022/06/22 11:39:20;;;;;;;2.93;1.00;;;;;;;32.22;43.87;94751.84;5133051;27;20468;-60
2022/06/22 11:42:10;;;;;;;5.87;0.80;;;;;;;31.89;45.38;94765.34;5130145;27;20503;-62
2022/06/22 11:48:01;;;;;;;2.27;0.70;;;;;;;31.21;47.92;94739.47;5132775;27;20434;-61
2022/06/22 11:50:44;;;;;;;0.80;0.80;;;;;;;31.16;48.81;94731.72;5132930;27;20862;-61
2022/06/22 11:53:29;;;;;;;0.90;0.90;;;;;;;30.87;51.99;94731.31;5133328;27;20422;-60
2022/06/22 11:56:02;;;;;;;1.33;0.83;;;;;;;30.71;55.23;94742.88;5132191;27;20474;-59
2022/06/22 11:58:43;;;;;;;1.00;0.97;;;;;;;30.73;55.61;94756.16;5132760;27;20459;-59
2022/06/22 12:01:45;;;;;;;0.90;0.90;;;;;;;30.66;57.70;94735.13;5132707;28;20486;-59
2022/06/22 12:04:37;;;;;;;0.93;0.93;;;;;;;30.53;61.15;94716.97;5112390;27;20488;-59
2022/06/22 12:07:48;;;;;;;1.77;0.90;;;;;;;30.21;60.64;94730.25;5129951;28;20450;-59
2022/06/22 12:10:35;;;;;;;1.63;1.07;;;;;;;29.64;70.87;94766.31;5131704;28;20485;-58
2022/06/22 12:13:20;;;;;;;3.23;0.80;;;;;;;29.64;74.37;94760.84;5133031;27;20518;-58
2022/06/22 12:15:59;;;;;;;4.37;1.20;;;;;;;29.82;67.41;94756.03;5132767;28;20442;-58
2022/06/22 12:18:57;;;;;;;1.63;1.53;;;;;;;29.99;68.19;94762.47;5135019;27;20902;-58
2022/06/22 12:21:53;;;;;;;0.80;0.60;;;;;;;29.75;71.74;94771.69;5136963;27;20816;-58
2022/06/22 12:24:34;;;;;;;1.37;1.23;;;;;;;29.89;68.92;94772.34;5133695;27;20505;-58
2022/06/22 12:27:14;;;;;;;1.20;1.20;;;;;;;29.67;68.16;94765.50;5136648;27;20529;-60
2022/06/22 12:30:04;;;;;;;1.90;1.13;;;;;;;29.37;71.00;94768.09;5136545;27;20461;-57
2022/06/22 12:32:38;;;;;;;1.90;1.17;;;;;;;29.62;73.21;94790.53;5137091;27;20462;-57
2022/06/22 12:35:17;;;;;;;4.43;1.10;;;;;;;29.59;71.67;94783.13;5136579;27;20427;-56
2022/06/22 12:37:51;;;;;;;2.10;1.30;;;;;;;29.76;69.99;94768.53;5136418;27;20491;-56
2022/06/22 12:40:25;;;;;;;1.17;1.03;;;;;;;30.00;70.98;94767.56;5136523;27;20426;-57
2022/06/22 12:43:18;;;;;;;1.13;0.70;;;;;;;30.05;66.32;94780.00;5136717;27;20841;-57
2022/06/22 12:45:54;;;;;;;0.77;0.63;;;;;;;30.23;66.37;94777.84;5135858;27;20916;-57
2022/06/22 12:49:01;;;;;;;0.70;0.40;;;;;;;30.11;67.67;94776.41;5136017;27;20430;-57
2022/06/22 12:51:36;;;;;;;1.47;1.37;;;;;;;29.65;62.70;94784.22;5120537;27;20434;-57
2022/06/22 12:54:11;;;;;;;0.93;0.60;;;;;;;29.42;61.10;94795.72;5136167;27;20504;-57
2022/06/22 12:56:43;;;;;;;0.93;0.93;;;;;;;28.95;60.47;94805.41;5136584;27;20522;-57